Addison, Pennsylvania
Current Conditions -  °F | °C
As of 10:05 PM on Tuesday 25 Nov 2014 (Local Time) from K2G4 Reporting Station
Clear Clear  
Wind Chill: -3°   Ceiling: Unl
Heat Index:   Visibility: 10mi
Dew Point: -2°   Wind: 6mph
Humidity: 87%   Direction: 350°N
Pressure: 30.1"   Gusts: NA
Location:  39.75°N, 79.34°W
Report Text: K2G4 260305Z AUTO 35005KT 10SM CLR 00/M02 A3010 RMK AO1
Loading
Personal Weather Stations






























Interactive Weather Map New forecast layout! Learn more

10-Day Weather Forecast

Advertisements
Track Severe Weather on mobile